sensor_id;sensor_type;location;lat;lon;timestamp;temperature;humidity
21682;DHT22;11002;48.256;10.084;2023-05-07T00:00:43;12.50;91.60
21682;DHT22;11002;48.256;10.084;2023-05-07T00:03:10;12.50;91.60
21682;DHT22;11002;48.256;10.084;2023-05-07T00:05:39;12.50;91.00
21682;DHT22;11002;48.256;10.084;2023-05-07T00:08:07;12.40;90.10
21682;DHT22;11002;48.256;10.084;2023-05-07T00:10:34;12.40;91.10
21682;DHT22;11002;48.256;10.084;2023-05-07T00:13:03;12.40;91.60
21682;DHT22;11002;48.256;10.084;2023-05-07T00:15:30;12.40;91.50
21682;DHT22;11002;48.256;10.084;2023-05-07T00:17:58;12.40;91.50
21682;DHT22;11002;48.256;10.084;2023-05-07T00:20:25;12.40;91.50
21682;DHT22;11002;48.256;10.084;2023-05-07T00:22:53;12.30;90.80
21682;DHT22;11002;48.256;10.084;2023-05-07T00:25:20;12.30;90.30
21682;DHT22;11002;48.256;10.084;2023-05-07T00:27:47;12.20;90.80
21682;DHT22;11002;48.256;10.084;2023-05-07T00:30:16;12.20;88.80
21682;DHT22;11002;48.256;10.084;2023-05-07T00:32:44;12.10;87.40
21682;DHT22;11002;48.256;10.084;2023-05-07T00:35:12;12.00;87.40
21682;DHT22;11002;48.256;10.084;2023-05-07T00:37:39;11.90;89.50
21682;DHT22;11002;48.256;10.084;2023-05-07T00:40:07;12.00;90.60
21682;DHT22;11002;48.256;10.084;2023-05-07T00:42:35;12.00;91.40
21682;DHT22;11002;48.256;10.084;2023-05-07T00:45:04;12.00;91.40
21682;DHT22;11002;48.256;10.084;2023-05-07T00:47:33;12.00;91.40
21682;DHT22;11002;48.256;10.084;2023-05-07T00:50:00;12.10;91.40
21682;DHT22;11002;48.256;10.084;2023-05-07T00:52:29;12.10;92.00
21682;DHT22;11002;48.256;10.084;2023-05-07T00:54:57;12.10;92.20
21682;DHT22;11002;48.256;10.084;2023-05-07T00:57:24;12.10;92.40
21682;DHT22;11002;48.256;10.084;2023-05-07T00:59:52;12.10;92.50
21682;DHT22;11002;48.256;10.084;2023-05-07T01:02:20;12.20;92.40
21682;DHT22;11002;48.256;10.084;2023-05-07T01:04:49;12.10;92.60
21682;DHT22;11002;48.256;10.084;2023-05-07T01:07:16;12.10;92.80
21682;DHT22;11002;48.256;10.084;2023-05-07T01:09:44;12.10;93.10
21682;DHT22;11002;48.256;10.084;2023-05-07T01:12:11;12.10;92.60
21682;DHT22;11002;48.256;10.084;2023-05-07T01:14:39;12.10;92.50
21682;DHT22;11002;48.256;10.084;2023-05-07T01:17:07;12.00;92.30
21682;DHT22;11002;48.256;10.084;2023-05-07T01:19:35;12.00;90.50
21682;DHT22;11002;48.256;10.084;2023-05-07T01:22:08;11.80;89.90
21682;DHT22;11002;48.256;10.084;2023-05-07T01:24:47;11.80;91.30
21682;DHT22;11002;48.256;10.084;2023-05-07T01:27:16;11.80;92.20
21682;DHT22;11002;48.256;10.084;2023-05-07T01:29:44;11.80;92.60
21682;DHT22;11002;48.256;10.084;2023-05-07T01:32:12;11.80;92.60
21682;DHT22;11002;48.256;10.084;2023-05-07T01:34:40;11.80;93.50
21682;DHT22;11002;48.256;10.084;2023-05-07T01:37:08;11.90;94.20
21682;DHT22;11002;48.256;10.084;2023-05-07T01:39:37;11.90;94.40
21682;DHT22;11002;48.256;10.084;2023-05-07T01:42:07;11.90;95.20
21682;DHT22;11002;48.256;10.084;2023-05-07T01:44:35;11.90;95.10
21682;DHT22;11002;48.256;10.084;2023-05-07T01:47:03;11.90;95.00
21682;DHT22;11002;48.256;10.084;2023-05-07T01:49:30;11.90;95.10
21682;DHT22;11002;48.256;10.084;2023-05-07T01:51:58;11.90;95.00
21682;DHT22;11002;48.256;10.084;2023-05-07T01:54:26;11.80;94.10
21682;DHT22;11002;48.256;10.084;2023-05-07T01:56:56;11.80;92.70
21682;DHT22;11002;48.256;10.084;2023-05-07T01:59:25;11.70;94.00
21682;DHT22;11002;48.256;10.084;2023-05-07T02:01:53;11.70;94.10
21682;DHT22;11002;48.256;10.084;2023-05-07T02:04:20;11.70;94.10
21682;DHT22;11002;48.256;10.084;2023-05-07T02:06:47;11.70;94.50
21682;DHT22;11002;48.256;10.084;2023-05-07T02:09:15;11.70;94.70
21682;DHT22;11002;48.256;10.084;2023-05-07T02:11:45;11.70;94.50
21682;DHT22;11002;48.256;10.084;2023-05-07T02:14:13;11.70;94.10
21682;DHT22;11002;48.256;10.084;2023-05-07T02:16:43;11.70;94.40
21682;DHT22;11002;48.256;10.084;2023-05-07T02:19:12;11.60;94.30
21682;DHT22;11002;48.256;10.084;2023-05-07T02:21:40;11.60;94.70
21682;DHT22;11002;48.256;10.084;2023-05-07T02:24:07;11.60;94.70
21682;DHT22;11002;48.256;10.084;2023-05-07T02:26:35;11.60;94.00
21682;DHT22;11002;48.256;10.084;2023-05-07T02:29:02;11.60;93.80
21682;DHT22;11002;48.256;10.084;2023-05-07T02:31:30;11.50;94.00
21682;DHT22;11002;48.256;10.084;2023-05-07T02:33:58;11.50;94.00
21682;DHT22;11002;48.256;10.084;2023-05-07T02:36:26;11.50;94.00
21682;DHT22;11002;48.256;10.084;2023-05-07T02:39:03;11.50;94.60
21682;DHT22;11002;48.256;10.084;2023-05-07T02:41:30;11.50;94.70
21682;DHT22;11002;48.256;10.084;2023-05-07T02:43:58;11.50;94.90
21682;DHT22;11002;48.256;10.084;2023-05-07T02:46:25;11.40;93.90
21682;DHT22;11002;48.256;10.084;2023-05-07T02:49:01;11.40;94.70
21682;DHT22;11002;48.256;10.084;2023-05-07T02:51:30;11.60;95.00
21682;DHT22;11002;48.256;10.084;2023-05-07T02:54:00;11.40;94.90
21682;DHT22;11002;48.256;10.084;2023-05-07T02:56:29;11.40;95.50
21682;DHT22;11002;48.256;10.084;2023-05-07T02:58:56;11.40;95.20
21682;DHT22;11002;48.256;10.084;2023-05-07T03:01:27;11.40;95.30
21682;DHT22;11002;48.256;10.084;2023-05-07T03:04:07;11.40;94.50
21682;DHT22;11002;48.256;10.084;2023-05-07T03:06:35;11.30;95.30
21682;DHT22;11002;48.256;10.084;2023-05-07T03:09:02;11.30;95.70
21682;DHT22;11002;48.256;10.084;2023-05-07T03:11:30;11.00;95.60
21682;DHT22;11002;48.256;10.084;2023-05-07T03:13:57;11.30;96.00
21682;DHT22;11002;48.256;10.084;2023-05-07T03:16:25;11.30;95.90
21682;DHT22;11002;48.256;10.084;2023-05-07T03:18:53;11.20;95.60
21682;DHT22;11002;48.256;10.084;2023-05-07T03:21:22;11.00;93.80
21682;DHT22;11002;48.256;10.084;2023-05-07T03:23:49;11.10;94.70
21682;DHT22;11002;48.256;10.084;2023-05-07T03:26:17;11.00;95.60
21682;DHT22;11002;48.256;10.084;2023-05-07T03:28:45;11.00;96.20
21682;DHT22;11002;48.256;10.084;2023-05-07T03:31:14;11.00;96.50
21682;DHT22;11002;48.256;10.084;2023-05-07T03:33:50;11.00;95.50
21682;DHT22;11002;48.256;10.084;2023-05-07T03:36:18;11.00;96.00
21682;DHT22;11002;48.256;10.084;2023-05-07T03:38:47;10.90;95.60
21682;DHT22;11002;48.256;10.084;2023-05-07T03:41:18;11.00;96.00
21682;DHT22;11002;48.256;10.084;2023-05-07T03:43:46;10.90;96.40
21682;DHT22;11002;48.256;10.084;2023-05-07T03:46:13;10.90;96.50
21682;DHT22;11002;48.256;10.084;2023-05-07T03:48:42;10.90;96.50
21682;DHT22;11002;48.256;10.084;2023-05-07T03:51:10;10.90;96.30
21682;DHT22;11002;48.256;10.084;2023-05-07T03:53:38;10.90;96.00
21682;DHT22;11002;48.256;10.084;2023-05-07T03:56:07;10.80;95.70
21682;DHT22;11002;48.256;10.084;2023-05-07T03:58:37;11.00;96.10
21682;DHT22;11002;48.256;10.084;2023-05-07T04:01:08;10.80;96.40
21682;DHT22;11002;48.256;10.084;2023-05-07T04:03:35;10.90;96.50
21682;DHT22;11002;48.256;10.084;2023-05-07T04:06:03;10.80;96.40
21682;DHT22;11002;48.256;10.084;2023-05-07T04:08:34;10.70;95.00
21682;DHT22;11002;48.256;10.084;2023-05-07T04:11:03;10.50;92.70
21682;DHT22;11002;48.256;10.084;2023-05-07T04:13:34;10.50;93.50
21682;DHT22;11002;48.256;10.084;2023-05-07T04:16:03;10.60;95.50
21682;DHT22;11002;48.256;10.084;2023-05-07T04:18:34;10.60;96.30
21682;DHT22;11002;48.256;10.084;2023-05-07T04:21:01;10.60;96.30
21682;DHT22;11002;48.256;10.084;2023-05-07T04:23:29;10.70;96.40
21682;DHT22;11002;48.256;10.084;2023-05-07T04:25:59;10.80;96.40
21682;DHT22;11002;48.256;10.084;2023-05-07T04:28:38;10.80;94.20
21682;DHT22;11002;48.256;10.084;2023-05-07T04:31:07;10.70;91.60
21682;DHT22;11002;48.256;10.084;2023-05-07T04:33:36;10.70;93.10
21682;DHT22;11002;48.256;10.084;2023-05-07T04:36:06;10.80;94.60
21682;DHT22;11002;48.256;10.084;2023-05-07T04:38:39;10.90;95.50
21682;DHT22;11002;48.256;10.084;2023-05-07T04:41:09;11.10;95.40
21682;DHT22;11002;48.256;10.084;2023-05-07T04:43:41;11.10;94.60
21682;DHT22;11002;48.256;10.084;2023-05-07T04:46:10;11.20;93.80
21682;DHT22;11002;48.256;10.084;2023-05-07T04:48:38;11.30;93.90
21682;DHT22;11002;48.256;10.084;2023-05-07T04:51:07;11.50;92.50
21682;DHT22;11002;48.256;10.084;2023-05-07T04:53:34;11.70;90.00
21682;DHT22;11002;48.256;10.084;2023-05-07T04:56:02;11.70;86.50
21682;DHT22;11002;48.256;10.084;2023-05-07T04:58:38;11.90;85.00
21682;DHT22;11002;48.256;10.084;2023-05-07T05:01:08;12.00;82.80
21682;DHT22;11002;48.256;10.084;2023-05-07T05:03:37;12.20;82.90
21682;DHT22;11002;48.256;10.084;2023-05-07T05:06:06;12.40;82.80
21682;DHT22;11002;48.256;10.084;2023-05-07T05:08:34;12.70;82.70
21682;DHT22;11002;48.256;10.084;2023-05-07T05:11:03;13.10;78.30
21682;DHT22;11002;48.256;10.084;2023-05-07T05:13:33;13.30;75.00
21682;DHT22;11002;48.256;10.084;2023-05-07T05:16:05;13.50;73.30
21682;DHT22;11002;48.256;10.084;2023-05-07T05:18:34;13.60;71.90
21682;DHT22;11002;48.256;10.084;2023-05-07T05:21:04;13.80;72.00
21682;DHT22;11002;48.256;10.084;2023-05-07T05:23:33;14.00;70.50
21682;DHT22;11002;48.256;10.084;2023-05-07T05:26:00;14.30;69.20
21682;DHT22;11002;48.256;10.084;2023-05-07T05:28:31;15.10;67.70
21682;DHT22;11002;48.256;10.084;2023-05-07T05:30:59;16.40;59.30
21682;DHT22;11002;48.256;10.084;2023-05-07T05:33:30;17.40;53.10
21682;DHT22;11002;48.256;10.084;2023-05-07T05:36:04;18.50;48.00
21682;DHT22;11002;48.256;10.084;2023-05-07T05:38:32;19.00;45.10
21682;DHT22;11002;48.256;10.084;2023-05-07T05:41:03;19.40;43.50
21682;DHT22;11002;48.256;10.084;2023-05-07T05:43:31;19.50;43.20
21682;DHT22;11002;48.256;10.084;2023-05-07T05:45:58;19.90;40.90
21682;DHT22;11002;48.256;10.084;2023-05-07T05:48:26;20.20;38.60
21682;DHT22;11002;48.256;10.084;2023-05-07T05:50:54;20.30;37.10
21682;DHT22;11002;48.256;10.084;2023-05-07T05:53:22;20.50;36.90
21682;DHT22;11002;48.256;10.084;2023-05-07T05:55:50;20.30;36.60
21682;DHT22;11002;48.256;10.084;2023-05-07T05:58:18;20.60;35.60
21682;DHT22;11002;48.256;10.084;2023-05-07T06:00:51;20.90;35.80
21682;DHT22;11002;48.256;10.084;2023-05-07T06:03:21;20.60;35.60
21682;DHT22;11002;48.256;10.084;2023-05-07T06:08:53;19.10;37.70
21682;DHT22;11002;48.256;10.084;2023-05-07T06:11:25;18.60;42.20
21682;DHT22;11002;48.256;10.084;2023-05-07T06:13:53;18.10;43.00
21682;DHT22;11002;48.256;10.084;2023-05-07T06:16:21;17.60;44.80
21682;DHT22;11002;48.256;10.084;2023-05-07T06:18:48;17.20;45.80
21682;DHT22;11002;48.256;10.084;2023-05-07T06:21:16;16.90;45.50
21682;DHT22;11002;48.256;10.084;2023-05-07T06:23:43;16.90;47.20
21682;DHT22;11002;48.256;10.084;2023-05-07T06:26:12;16.80;46.80
21682;DHT22;11002;48.256;10.084;2023-05-07T06:28:42;16.60;48.50
21682;DHT22;11002;48.256;10.084;2023-05-07T06:31:13;16.50;49.90
21682;DHT22;11002;48.256;10.084;2023-05-07T06:33:44;16.50;50.30
21682;DHT22;11002;48.256;10.084;2023-05-07T06:36:11;16.60;49.80
21682;DHT22;11002;48.256;10.084;2023-05-07T06:38:39;16.90;50.50
21682;DHT22;11002;48.256;10.084;2023-05-07T06:41:07;17.30;52.10
21682;DHT22;11002;48.256;10.084;2023-05-07T06:43:35;17.60;50.00
21682;DHT22;11002;48.256;10.084;2023-05-07T06:46:25;17.70;50.80
21682;DHT22;11002;48.256;10.084;2023-05-07T06:48:52;17.70;50.00
21682;DHT22;11002;48.256;10.084;2023-05-07T06:51:20;17.80;49.80
21682;DHT22;11002;48.256;10.084;2023-05-07T06:53:47;18.00;51.80
21682;DHT22;11002;48.256;10.084;2023-05-07T06:56:15;18.10;46.60
21682;DHT22;11002;48.256;10.084;2023-05-07T06:58:44;18.20;45.80
21682;DHT22;11002;48.256;10.084;2023-05-07T07:01:11;19.10;44.60
21682;DHT22;11002;48.256;10.084;2023-05-07T07:03:39;19.90;41.60
21682;DHT22;11002;48.256;10.084;2023-05-07T07:06:06;20.70;38.10
21682;DHT22;11002;48.256;10.084;2023-05-07T07:08:34;20.80;37.10
21682;DHT22;11002;48.256;10.084;2023-05-07T07:11:01;20.70;37.10
21682;DHT22;11002;48.256;10.084;2023-05-07T07:13:29;20.50;39.70
21682;DHT22;11002;48.256;10.084;2023-05-07T07:15:59;20.90;38.50
21682;DHT22;11002;48.256;10.084;2023-05-07T07:18:27;21.60;36.40
21682;DHT22;11002;48.256;10.084;2023-05-07T07:20:55;22.00;36.00
21682;DHT22;11002;48.256;10.084;2023-05-07T07:23:22;22.10;33.60
21682;DHT22;11002;48.256;10.084;2023-05-07T07:25:49;21.50;36.40
21682;DHT22;11002;48.256;10.084;2023-05-07T07:28:17;20.90;35.80
21682;DHT22;11002;48.256;10.084;2023-05-07T07:30:45;20.60;36.40
21682;DHT22;11002;48.256;10.084;2023-05-07T07:33:13;20.60;37.80
21682;DHT22;11002;48.256;10.084;2023-05-07T07:35:41;20.60;38.00
21682;DHT22;11002;48.256;10.084;2023-05-07T07:38:10;20.70;38.80
21682;DHT22;11002;48.256;10.084;2023-05-07T07:40:37;20.70;36.70
21682;DHT22;11002;48.256;10.084;2023-05-07T07:43:06;21.10;36.00
21682;DHT22;11002;48.256;10.084;2023-05-07T07:45:34;21.30;36.20
21682;DHT22;11002;48.256;10.084;2023-05-07T07:48:02;21.40;36.30
21682;DHT22;11002;48.256;10.084;2023-05-07T07:50:35;21.80;36.60
21682;DHT22;11002;48.256;10.084;2023-05-07T07:53:03;22.40;33.10
21682;DHT22;11002;48.256;10.084;2023-05-07T07:55:31;22.20;35.00
21682;DHT22;11002;48.256;10.084;2023-05-07T07:58:00;22.10;34.30
21682;DHT22;11002;48.256;10.084;2023-05-07T08:00:28;22.00;33.60
21682;DHT22;11002;48.256;10.084;2023-05-07T08:02:56;22.20;37.00
21682;DHT22;11002;48.256;10.084;2023-05-07T08:05:29;22.60;33.40
21682;DHT22;11002;48.256;10.084;2023-05-07T08:07:59;22.40;33.00
21682;DHT22;11002;48.256;10.084;2023-05-07T08:10:31;21.90;35.10
21682;DHT22;11002;48.256;10.084;2023-05-07T08:13:05;21.70;36.10
21682;DHT22;11002;48.256;10.084;2023-05-07T08:15:36;21.20;36.10
21682;DHT22;11002;48.256;10.084;2023-05-07T08:18:03;21.00;37.60
21682;DHT22;11002;48.256;10.084;2023-05-07T08:20:32;20.80;36.90
21682;DHT22;11002;48.256;10.084;2023-05-07T08:23:01;20.80;37.70
21682;DHT22;11002;48.256;10.084;2023-05-07T08:25:28;20.70;35.70
21682;DHT22;11002;48.256;10.084;2023-05-07T08:27:56;20.70;37.50
21682;DHT22;11002;48.256;10.084;2023-05-07T08:30:23;20.90;38.00
21682;DHT22;11002;48.256;10.084;2023-05-07T08:32:52;21.10;36.00
21682;DHT22;11002;48.256;10.084;2023-05-07T08:35:20;21.30;36.20
21682;DHT22;11002;48.256;10.084;2023-05-07T08:37:47;21.30;36.20
21682;DHT22;11002;48.256;10.084;2023-05-07T08:40:18;21.10;36.00
21682;DHT22;11002;48.256;10.084;2023-05-07T08:42:48;21.10;36.00
21682;DHT22;11002;48.256;10.084;2023-05-07T08:45:17;21.20;36.10
21682;DHT22;11002;48.256;10.084;2023-05-07T08:47:51;21.40;35.30
21682;DHT22;11002;48.256;10.084;2023-05-07T08:50:22;21.70;33.70
21682;DHT22;11002;48.256;10.084;2023-05-07T08:52:50;22.40;33.90
21682;DHT22;11002;48.256;10.084;2023-05-07T08:55:20;22.90;30.80
21682;DHT22;11002;48.256;10.084;2023-05-07T08:57:48;23.10;29.90
21682;DHT22;11002;48.256;10.084;2023-05-07T09:00:17;23.30;30.80
21682;DHT22;11002;48.256;10.084;2023-05-07T09:02:48;23.10;29.40
21682;DHT22;11002;48.256;10.084;2023-05-07T09:05:16;23.20;32.50
21682;DHT22;11002;48.256;10.084;2023-05-07T09:07:44;23.00;29.30
21682;DHT22;11002;48.256;10.084;2023-05-07T09:10:14;22.60;29.90
21682;DHT22;11002;48.256;10.084;2023-05-07T09:12:46;22.80;32.70
21682;DHT22;11002;48.256;10.084;2023-05-07T09:15:15;23.20;31.00
21682;DHT22;11002;48.256;10.084;2023-05-07T09:17:43;23.40;30.10
21682;DHT22;11002;48.256;10.084;2023-05-07T09:20:11;23.50;28.30
21682;DHT22;11002;48.256;10.084;2023-05-07T09:22:39;23.30;27.90
21682;DHT22;11002;48.256;10.084;2023-05-07T09:25:10;23.80;26.10
21682;DHT22;11002;48.256;10.084;2023-05-07T09:27:39;24.50;26.40
21682;DHT22;11002;48.256;10.084;2023-05-07T09:30:09;25.20;25.60
21682;DHT22;11002;48.256;10.084;2023-05-07T09:32:37;25.50;23.70
21682;DHT22;11002;48.256;10.084;2023-05-07T09:35:08;25.70;24.00
21682;DHT22;11002;48.256;10.084;2023-05-07T09:37:41;26.00;23.20
21682;DHT22;11002;48.256;10.084;2023-05-07T09:40:20;25.70;22.40
21682;DHT22;11002;48.256;10.084;2023-05-07T09:42:48;25.80;24.00
21682;DHT22;11002;48.256;10.084;2023-05-07T09:45:21;25.60;23.40
21682;DHT22;11002;48.256;10.084;2023-05-07T09:47:53;25.40;24.90
21682;DHT22;11002;48.256;10.084;2023-05-07T09:50:26;25.60;25.40
21682;DHT22;11002;48.256;10.084;2023-05-07T09:52:54;25.50;23.60
21682;DHT22;11002;48.256;10.084;2023-05-07T09:55:24;25.80;23.70
21682;DHT22;11002;48.256;10.084;2023-05-07T09:57:53;25.60;22.80
21682;DHT22;11002;48.256;10.084;2023-05-07T10:00:23;25.40;23.20
21682;DHT22;11002;48.256;10.084;2023-05-07T10:03:00;25.80;23.70
21682;DHT22;11002;48.256;10.084;2023-05-07T10:05:37;26.00;23.20
21682;DHT22;11002;48.256;10.084;2023-05-07T10:08:05;26.10;21.10
21682;DHT22;11002;48.256;10.084;2023-05-07T10:10:36;26.10;21.80
21682;DHT22;11002;48.256;10.084;2023-05-07T10:13:08;26.00;22.60
21682;DHT22;11002;48.256;10.084;2023-05-07T10:15:40;26.10;21.80
21682;DHT22;11002;48.256;10.084;2023-05-07T10:18:08;26.80;21.90
21682;DHT22;11002;48.256;10.084;2023-05-07T10:20:37;27.90;18.90
21682;DHT22;11002;48.256;10.084;2023-05-07T10:23:08;28.30;17.40
21682;DHT22;11002;48.256;10.084;2023-05-07T10:25:42;28.30;17.40
21682;DHT22;11002;48.256;10.084;2023-05-07T10:28:18;27.30;19.10
21682;DHT22;11002;48.256;10.084;2023-05-07T10:30:58;26.70;19.30
21682;DHT22;11002;48.256;10.084;2023-05-07T10:33:34;26.80;19.70
21682;DHT22;11002;48.256;10.084;2023-05-07T10:36:05;26.80;19.50
21682;DHT22;11002;48.256;10.084;2023-05-07T10:38:34;26.90;19.60
21682;DHT22;11002;48.256;10.084;2023-05-07T10:41:02;26.80;20.70
21682;DHT22;11002;48.256;10.084;2023-05-07T10:43:43;26.90;20.20
21682;DHT22;11002;48.256;10.084;2023-05-07T10:46:19;27.20;18.00
21682;DHT22;11002;48.256;10.084;2023-05-07T10:49:10;27.30;18.80
21682;DHT22;11002;48.256;10.084;2023-05-07T10:52:14;28.70;17.60
21682;DHT22;11002;48.256;10.084;2023-05-07T10:55:19;29.20;15.70
21682;DHT22;11002;48.256;10.084;2023-05-07T10:58:22;28.50;17.50
21682;DHT22;11002;48.256;10.084;2023-05-07T11:00:56;28.10;17.30
21682;DHT22;11002;48.256;10.084;2023-05-07T11:03:30;27.80;17.10
21682;DHT22;11002;48.256;10.084;2023-05-07T11:06:11;27.30;17.40
21682;DHT22;11002;48.256;10.084;2023-05-07T11:08:59;26.70;19.70
21682;DHT22;11002;48.256;10.084;2023-05-07T11:11:47;26.40;21.40
21682;DHT22;11002;48.256;10.084;2023-05-07T11:14:44;26.50;19.00
21682;DHT22;11002;48.256;10.084;2023-05-07T11:17:19;26.90;19.60
21682;DHT22;11002;48.256;10.084;2023-05-07T11:19:55;26.60;19.50
21682;DHT22;11002;48.256;10.084;2023-05-07T11:22:38;26.20;21.00
21682;DHT22;11002;48.256;10.084;2023-05-07T11:25:32;25.60;21.30
21682;DHT22;11002;48.256;10.084;2023-05-07T11:28:16;24.70;22.20
21682;DHT22;11002;48.256;10.084;2023-05-07T11:30:56;24.50;24.20
21682;DHT22;11002;48.256;10.084;2023-05-07T11:33:24;24.50;24.60
21682;DHT22;11002;48.256;10.084;2023-05-07T11:35:55;24.50;23.90
21682;DHT22;11002;48.256;10.084;2023-05-07T11:38:29;24.80;23.10
21682;DHT22;11002;48.256;10.084;2023-05-07T11:40:57;25.20;21.40
21682;DHT22;11002;48.256;10.084;2023-05-07T11:43:26;25.20;21.40
21682;DHT22;11002;48.256;10.084;2023-05-07T11:45:54;25.40;23.70
21682;DHT22;11002;48.256;10.084;2023-05-07T11:48:22;26.00;20.90
21682;DHT22;11002;48.256;10.084;2023-05-07T11:51:01;26.00;19.00
21682;DHT22;11002;48.256;10.084;2023-05-07T11:53:37;26.10;20.70
21682;DHT22;11002;48.256;10.084;2023-05-07T11:56:09;26.50;19.40
21682;DHT22;11002;48.256;10.084;2023-05-07T11:58:36;26.40;21.50
21682;DHT22;11002;48.256;10.084;2023-05-07T12:01:04;26.40;21.00
21682;DHT22;11002;48.256;10.084;2023-05-07T12:03:34;26.20;20.00
21682;DHT22;11002;48.256;10.084;2023-05-07T12:06:05;26.20;19.60
21682;DHT22;11002;48.256;10.084;2023-05-07T12:08:35;26.20;20.40
21682;DHT22;11002;48.256;10.084;2023-05-07T12:11:03;25.90;21.30
21682;DHT22;11002;48.256;10.084;2023-05-07T12:13:30;25.80;21.30
21682;DHT22;11002;48.256;10.084;2023-05-07T12:15:57;25.70;19.70
21682;DHT22;11002;48.256;10.084;2023-05-07T12:18:25;25.50;19.50
21682;DHT22;11002;48.256;10.084;2023-05-07T12:20:53;25.20;20.00
21682;DHT22;11002;48.256;10.084;2023-05-07T12:23:22;24.70;19.90
21682;DHT22;11002;48.256;10.084;2023-05-07T12:25:50;24.30;20.80
21682;DHT22;11002;48.256;10.084;2023-05-07T12:28:18;24.40;24.00
21682;DHT22;11002;48.256;10.084;2023-05-07T12:30:47;24.70;22.50
21682;DHT22;11002;48.256;10.084;2023-05-07T12:33:17;24.80;21.70
21682;DHT22;11002;48.256;10.084;2023-05-07T12:35:47;25.00;21.70
21682;DHT22;11002;48.256;10.084;2023-05-07T12:38:16;25.00;22.50
21682;DHT22;11002;48.256;10.084;2023-05-07T12:40:46;25.10;22.00
21682;DHT22;11002;48.256;10.084;2023-05-07T12:43:17;25.00;21.40
21682;DHT22;11002;48.256;10.084;2023-05-07T12:45:44;25.00;22.40
21682;DHT22;11002;48.256;10.084;2023-05-07T12:48:13;24.70;21.50
21682;DHT22;11002;48.256;10.084;2023-05-07T12:50:41;24.80;22.50
21682;DHT22;11002;48.256;10.084;2023-05-07T12:53:10;24.50;21.80
21682;DHT22;11002;48.256;10.084;2023-05-07T12:55:42;24.20;22.60
21682;DHT22;11002;48.256;10.084;2023-05-07T12:58:16;24.20;24.60
21682;DHT22;11002;48.256;10.084;2023-05-07T13:00:44;24.00;22.90
21682;DHT22;11002;48.256;10.084;2023-05-07T13:03:11;24.00;26.10
21682;DHT22;11002;48.256;10.084;2023-05-07T13:05:39;24.20;23.90
21682;DHT22;11002;48.256;10.084;2023-05-07T13:08:06;24.00;24.60
21682;DHT22;11002;48.256;10.084;2023-05-07T13:10:35;23.80;23.70
21682;DHT22;11002;48.256;10.084;2023-05-07T13:13:03;23.60;24.30
21682;DHT22;11002;48.256;10.084;2023-05-07T13:15:31;23.40;24.40
21682;DHT22;11002;48.256;10.084;2023-05-07T13:17:59;23.30;24.30
21682;DHT22;11002;48.256;10.084;2023-05-07T13:20:26;23.20;24.80
21682;DHT22;11002;48.256;10.084;2023-05-07T13:22:54;23.20;24.70
21682;DHT22;11002;48.256;10.084;2023-05-07T13:25:21;23.30;24.80
21682;DHT22;11002;48.256;10.084;2023-05-07T13:27:48;23.30;24.40
21682;DHT22;11002;48.256;10.084;2023-05-07T13:30:15;23.50;24.50
21682;DHT22;11002;48.256;10.084;2023-05-07T13:32:44;23.60;24.40
21682;DHT22;11002;48.256;10.084;2023-05-07T13:35:13;23.50;24.30
21682;DHT22;11002;48.256;10.084;2023-05-07T13:37:41;23.50;25.70
21682;DHT22;11002;48.256;10.084;2023-05-07T13:40:09;23.30;23.60
21682;DHT22;11002;48.256;10.084;2023-05-07T13:42:36;23.20;23.50
21682;DHT22;11002;48.256;10.084;2023-05-07T13:45:04;22.90;23.30
21682;DHT22;11002;48.256;10.084;2023-05-07T13:47:31;22.70;25.20
21682;DHT22;11002;48.256;10.084;2023-05-07T13:50:00;22.80;25.30
21682;DHT22;11002;48.256;10.084;2023-05-07T13:52:28;22.70;25.20
21682;DHT22;11002;48.256;10.084;2023-05-07T13:54:55;22.90;25.30
21682;DHT22;11002;48.256;10.084;2023-05-07T13:57:24;22.80;25.30
21682;DHT22;11002;48.256;10.084;2023-05-07T13:59:52;22.70;25.20
21682;DHT22;11002;48.256;10.084;2023-05-07T14:02:19;22.60;26.60
21682;DHT22;11002;48.256;10.084;2023-05-07T14:04:46;22.60;27.30
21682;DHT22;11002;48.256;10.084;2023-05-07T14:07:15;22.80;25.30
21682;DHT22;11002;48.256;10.084;2023-05-07T14:09:42;22.70;25.20
21682;DHT22;11002;48.256;10.084;2023-05-07T14:12:11;22.70;26.10
21682;DHT22;11002;48.256;10.084;2023-05-07T14:14:38;22.80;26.50
21682;DHT22;11002;48.256;10.084;2023-05-07T14:17:05;22.80;25.30
21682;DHT22;11002;48.256;10.084;2023-05-07T14:19:34;22.70;26.20
21682;DHT22;11002;48.256;10.084;2023-05-07T14:22:01;22.70;25.80
21682;DHT22;11002;48.256;10.084;2023-05-07T14:24:30;22.40;25.30
21682;DHT22;11002;48.256;10.084;2023-05-07T14:26:57;22.40;25.00
21682;DHT22;11002;48.256;10.084;2023-05-07T14:29:24;22.30;24.90
21682;DHT22;11002;48.256;10.084;2023-05-07T14:31:51;22.30;25.50
21682;DHT22;11002;48.256;10.084;2023-05-07T14:34:19;22.20;27.50
21682;DHT22;11002;48.256;10.084;2023-05-07T14:36:46;22.10;28.30
21682;DHT22;11002;48.256;10.084;2023-05-07T14:39:13;22.20;29.10
21682;DHT22;11002;48.256;10.084;2023-05-07T14:41:42;22.10;28.20
21682;DHT22;11002;48.256;10.084;2023-05-07T14:44:09;22.00;29.20
21682;DHT22;11002;48.256;10.084;2023-05-07T14:46:36;21.90;29.10
21682;DHT22;11002;48.256;10.084;2023-05-07T14:49:04;21.70;28.50
21682;DHT22;11002;48.256;10.084;2023-05-07T14:51:31;21.60;28.50
21682;DHT22;11002;48.256;10.084;2023-05-07T14:53:59;21.50;29.20
21682;DHT22;11002;48.256;10.084;2023-05-07T14:56:27;21.40;29.70
21682;DHT22;11002;48.256;10.084;2023-05-07T14:58:55;21.30;30.00
21682;DHT22;11002;48.256;10.084;2023-05-07T15:01:24;21.40;29.70
21682;DHT22;11002;48.256;10.084;2023-05-07T15:03:52;21.40;31.80
21682;DHT22;11002;48.256;10.084;2023-05-07T15:06:19;21.50;31.40
21682;DHT22;11002;48.256;10.084;2023-05-07T15:08:46;21.60;32.30
21682;DHT22;11002;48.256;10.084;2023-05-07T15:11:14;21.70;31.70
21682;DHT22;11002;48.256;10.084;2023-05-07T15:13:42;21.70;36.60
21682;DHT22;11002;48.256;10.084;2023-05-07T15:16:11;21.60;41.20
21682;DHT22;11002;48.256;10.084;2023-05-07T15:18:38;21.40;41.90
21682;DHT22;11002;48.256;10.084;2023-05-07T15:21:06;21.20;42.80
21682;DHT22;11002;48.256;10.084;2023-05-07T15:23:33;21.00;42.60
21682;DHT22;11002;48.256;10.084;2023-05-07T15:26:01;20.90;44.30
21682;DHT22;11002;48.256;10.084;2023-05-07T15:28:28;20.80;44.50
21682;DHT22;11002;48.256;10.084;2023-05-07T15:30:57;20.70;44.50
21682;DHT22;11002;48.256;10.084;2023-05-07T15:33:26;20.70;46.60